sensor_id;sensor_type;location;lat;lon;timestamp;P1;durP1;ratioP1;P2;durP2;ratioP2
20611;SDS011;10465;42.686;23.364;2022-10-16T00:01:12;16.08;;;11.15;;
20611;SDS011;10465;42.686;23.364;2022-10-16T00:03:40;12.27;;;8.85;;
20611;SDS011;10465;42.686;23.364;2022-10-16T00:06:07;16.17;;;10.55;;
20611;SDS011;10465;42.686;23.364;2022-10-16T00:08:33;14.18;;;10.85;;
20611;SDS011;10465;42.686;23.364;2022-10-16T00:11:00;16.80;;;10.00;;
20611;SDS011;10465;42.686;23.364;2022-10-16T00:13:27;12.27;;;9.27;;
20611;SDS011;10465;42.686;23.364;2022-10-16T00:15:57;15.38;;;9.55;;
20611;SDS011;10465;42.686;23.364;2022-10-16T00:18:24;16.30;;;9.95;;
20611;SDS011;10465;42.686;23.364;2022-10-16T00:20:50;16.17;;;9.90;;
20611;SDS011;10465;42.686;23.364;2022-10-16T00:23:16;13.35;;;9.32;;
20611;SDS011;10465;42.686;23.364;2022-10-16T00:25:41;13.73;;;9.27;;
20611;SDS011;10465;42.686;23.364;2022-10-16T00:28:07;12.98;;;8.90;;
20611;SDS011;10465;42.686;23.364;2022-10-16T00:30:32;12.18;;;8.43;;
20611;SDS011;10465;42.686;23.364;2022-10-16T00:32:58;15.95;;;9.85;;
20611;SDS011;10465;42.686;23.364;2022-10-16T00:35:23;15.25;;;9.48;;
20611;SDS011;10465;42.686;23.364;2022-10-16T00:37:49;12.32;;;9.05;;
20611;SDS011;10465;42.686;23.364;2022-10-16T00:40:14;15.52;;;9.48;;
20611;SDS011;10465;42.686;23.364;2022-10-16T00:42:40;12.68;;;8.82;;
20611;SDS011;10465;42.686;23.364;2022-10-16T00:45:06;13.75;;;9.13;;
20611;SDS011;10465;42.686;23.364;2022-10-16T00:47:34;13.73;;;10.02;;
20611;SDS011;10465;42.686;23.364;2022-10-16T00:50:28;13.07;;;9.50;;
20611;SDS011;10465;42.686;23.364;2022-10-16T00:52:56;12.57;;;8.77;;
20611;SDS011;10465;42.686;23.364;2022-10-16T00:55:27;15.90;;;9.95;;
20611;SDS011;10465;42.686;23.364;2022-10-16T00:57:55;15.00;;;9.88;;
20611;SDS011;10465;42.686;23.364;2022-10-16T01:00:23;16.02;;;10.57;;
20611;SDS011;10465;42.686;23.364;2022-10-16T01:02:55;14.48;;;9.73;;
20611;SDS011;10465;42.686;23.364;2022-10-16T01:05:22;14.35;;;10.00;;
20611;SDS011;10465;42.686;23.364;2022-10-16T01:10:35;13.82;;;10.85;;
20611;SDS011;10465;42.686;23.364;2022-10-16T01:13:06;13.85;;;10.18;;
20611;SDS011;10465;42.686;23.364;2022-10-16T01:15:36;13.90;;;9.82;;
20611;SDS011;10465;42.686;23.364;2022-10-16T01:23:31;12.98;;;9.52;;
20611;SDS011;10465;42.686;23.364;2022-10-16T01:32:28;19.30;;;11.05;;
20611;SDS011;10465;42.686;23.364;2022-10-16T01:35:00;17.75;;;11.43;;
20611;SDS011;10465;42.686;23.364;2022-10-16T01:40:19;18.70;;;10.77;;
20611;SDS011;10465;42.686;23.364;2022-10-16T01:43:03;15.90;;;10.52;;
20611;SDS011;10465;42.686;23.364;2022-10-16T01:45:32;14.55;;;10.27;;
20611;SDS011;10465;42.686;23.364;2022-10-16T01:48:00;16.50;;;10.95;;
20611;SDS011;10465;42.686;23.364;2022-10-16T01:50:29;15.30;;;11.00;;
20611;SDS011;10465;42.686;23.364;2022-10-16T01:52:56;15.43;;;10.65;;
20611;SDS011;10465;42.686;23.364;2022-10-16T01:55:28;18.58;;;10.88;;
20611;SDS011;10465;42.686;23.364;2022-10-16T01:57:57;15.07;;;10.32;;
20611;SDS011;10465;42.686;23.364;2022-10-16T02:00:26;17.27;;;10.75;;
20611;SDS011;10465;42.686;23.364;2022-10-16T02:02:53;16.17;;;10.45;;
20611;SDS011;10465;42.686;23.364;2022-10-16T02:05:27;14.00;;;9.75;;
20611;SDS011;10465;42.686;23.364;2022-10-16T02:07:56;15.00;;;10.25;;
20611;SDS011;10465;42.686;23.364;2022-10-16T02:10:22;14.65;;;10.52;;
20611;SDS011;10465;42.686;23.364;2022-10-16T02:13:00;13.73;;;9.52;;
20611;SDS011;10465;42.686;23.364;2022-10-16T02:15:27;13.82;;;9.90;;
20611;SDS011;10465;42.686;23.364;2022-10-16T02:17:53;16.23;;;9.82;;
20611;SDS011;10465;42.686;23.364;2022-10-16T02:20:19;14.65;;;9.80;;
20611;SDS011;10465;42.686;23.364;2022-10-16T02:22:52;16.65;;;9.88;;
20611;SDS011;10465;42.686;23.364;2022-10-16T02:30:51;19.73;;;13.35;;
20611;SDS011;10465;42.686;23.364;2022-10-16T02:33:29;22.05;;;13.70;;
20611;SDS011;10465;42.686;23.364;2022-10-16T02:35:56;20.95;;;13.68;;
20611;SDS011;10465;42.686;23.364;2022-10-16T02:38:23;22.73;;;13.63;;
20611;SDS011;10465;42.686;23.364;2022-10-16T02:40:50;18.25;;;13.18;;
20611;SDS011;10465;42.686;23.364;2022-10-16T02:43:16;19.75;;;12.77;;
20611;SDS011;10465;42.686;23.364;2022-10-16T02:45:42;20.75;;;13.73;;
20611;SDS011;10465;42.686;23.364;2022-10-16T02:48:07;24.27;;;13.98;;
20611;SDS011;10465;42.686;23.364;2022-10-16T02:50:33;21.02;;;12.13;;
20611;SDS011;10465;42.686;23.364;2022-10-16T02:52:59;16.67;;;10.82;;
20611;SDS011;10465;42.686;23.364;2022-10-16T02:55:24;17.85;;;10.13;;
20611;SDS011;10465;42.686;23.364;2022-10-16T02:57:49;16.15;;;10.00;;
20611;SDS011;10465;42.686;23.364;2022-10-16T03:00:15;15.55;;;9.93;;
20611;SDS011;10465;42.686;23.364;2022-10-16T03:02:42;13.90;;;9.25;;
20611;SDS011;10465;42.686;23.364;2022-10-16T03:05:08;15.13;;;9.90;;
20611;SDS011;10465;42.686;23.364;2022-10-16T03:07:34;13.85;;;9.10;;
20611;SDS011;10465;42.686;23.364;2022-10-16T03:10:00;13.07;;;8.88;;
20611;SDS011;10465;42.686;23.364;2022-10-16T03:12:26;15.80;;;8.88;;
20611;SDS011;10465;42.686;23.364;2022-10-16T03:14:52;12.30;;;8.70;;
20611;SDS011;10465;42.686;23.364;2022-10-16T03:17:18;12.73;;;8.52;;
20611;SDS011;10465;42.686;23.364;2022-10-16T03:19:43;13.27;;;8.88;;
20611;SDS011;10465;42.686;23.364;2022-10-16T03:22:09;13.85;;;9.35;;
20611;SDS011;10465;42.686;23.364;2022-10-16T03:24:35;11.63;;;8.18;;
20611;SDS011;10465;42.686;23.364;2022-10-16T03:27:00;11.35;;;8.63;;
20611;SDS011;10465;42.686;23.364;2022-10-16T03:29:26;11.60;;;8.25;;
20611;SDS011;10465;42.686;23.364;2022-10-16T03:31:52;10.18;;;7.13;;
20611;SDS011;10465;42.686;23.364;2022-10-16T03:34:18;10.27;;;7.35;;
20611;SDS011;10465;42.686;23.364;2022-10-16T03:36:43;10.90;;;7.50;;
20611;SDS011;10465;42.686;23.364;2022-10-16T03:39:09;11.13;;;7.55;;
20611;SDS011;10465;42.686;23.364;2022-10-16T03:41:34;9.98;;;7.03;;
20611;SDS011;10465;42.686;23.364;2022-10-16T03:43:59;11.63;;;7.22;;
20611;SDS011;10465;42.686;23.364;2022-10-16T03:46:25;8.98;;;6.63;;
20611;SDS011;10465;42.686;23.364;2022-10-16T03:48:50;11.07;;;6.43;;
20611;SDS011;10465;42.686;23.364;2022-10-16T03:51:16;8.82;;;6.80;;
20611;SDS011;10465;42.686;23.364;2022-10-16T03:53:41;9.82;;;6.75;;
20611;SDS011;10465;42.686;23.364;2022-10-16T03:56:07;8.43;;;6.85;;
20611;SDS011;10465;42.686;23.364;2022-10-16T03:58:32;7.65;;;6.38;;
20611;SDS011;10465;42.686;23.364;2022-10-16T04:00:58;11.32;;;6.72;;
20611;SDS011;10465;42.686;23.364;2022-10-16T04:03:23;10.63;;;6.97;;
20611;SDS011;10465;42.686;23.364;2022-10-16T04:05:49;10.48;;;6.75;;
20611;SDS011;10465;42.686;23.364;2022-10-16T04:08:15;9.68;;;7.38;;
20611;SDS011;10465;42.686;23.364;2022-10-16T04:10:42;9.65;;;7.07;;
20611;SDS011;10465;42.686;23.364;2022-10-16T04:13:08;9.98;;;7.32;;
20611;SDS011;10465;42.686;23.364;2022-10-16T04:15:34;11.70;;;7.38;;
20611;SDS011;10465;42.686;23.364;2022-10-16T04:17:59;9.85;;;7.32;;
20611;SDS011;10465;42.686;23.364;2022-10-16T04:20:25;11.73;;;7.70;;
20611;SDS011;10465;42.686;23.364;2022-10-16T04:22:50;12.85;;;8.15;;
20611;SDS011;10465;42.686;23.364;2022-10-16T04:25:16;12.65;;;8.73;;
20611;SDS011;10465;42.686;23.364;2022-10-16T04:27:41;11.63;;;8.45;;
20611;SDS011;10465;42.686;23.364;2022-10-16T04:30:08;13.93;;;7.95;;
20611;SDS011;10465;42.686;23.364;2022-10-16T04:32:34;12.50;;;8.45;;
20611;SDS011;10465;42.686;23.364;2022-10-16T04:34:59;11.23;;;7.93;;
20611;SDS011;10465;42.686;23.364;2022-10-16T04:37:25;12.80;;;8.90;;
20611;SDS011;10465;42.686;23.364;2022-10-16T04:39:52;11.35;;;8.25;;
20611;SDS011;10465;42.686;23.364;2022-10-16T04:42:18;13.77;;;8.45;;
20611;SDS011;10465;42.686;23.364;2022-10-16T04:44:44;13.35;;;8.27;;
20611;SDS011;10465;42.686;23.364;2022-10-16T04:47:09;13.55;;;9.50;;
20611;SDS011;10465;42.686;23.364;2022-10-16T04:49:35;16.42;;;11.77;;
20611;SDS011;10465;42.686;23.364;2022-10-16T04:52:00;18.05;;;13.93;;
20611;SDS011;10465;42.686;23.364;2022-10-16T04:54:26;24.08;;;17.92;;
20611;SDS011;10465;42.686;23.364;2022-10-16T04:56:51;25.38;;;18.17;;
20611;SDS011;10465;42.686;23.364;2022-10-16T04:59:17;21.15;;;16.20;;
20611;SDS011;10465;42.686;23.364;2022-10-16T05:01:44;23.63;;;16.95;;
20611;SDS011;10465;42.686;23.364;2022-10-16T05:04:09;20.13;;;15.80;;
20611;SDS011;10465;42.686;23.364;2022-10-16T05:06:35;22.88;;;16.65;;
20611;SDS011;10465;42.686;23.364;2022-10-16T05:09:01;23.42;;;17.02;;
20611;SDS011;10465;42.686;23.364;2022-10-16T05:11:26;20.63;;;15.38;;
20611;SDS011;10465;42.686;23.364;2022-10-16T05:13:52;24.88;;;15.77;;
20611;SDS011;10465;42.686;23.364;2022-10-16T05:16:17;20.90;;;14.13;;
20611;SDS011;10465;42.686;23.364;2022-10-16T05:18:43;18.10;;;13.05;;
20611;SDS011;10465;42.686;23.364;2022-10-16T05:21:08;17.05;;;12.43;;
20611;SDS011;10465;42.686;23.364;2022-10-16T05:23:34;18.75;;;12.25;;
20611;SDS011;10465;42.686;23.364;2022-10-16T05:25:59;15.52;;;11.68;;
20611;SDS011;10465;42.686;23.364;2022-10-16T05:28:26;16.63;;;11.27;;
20611;SDS011;10465;42.686;23.364;2022-10-16T05:30:52;16.70;;;10.85;;
20611;SDS011;10465;42.686;23.364;2022-10-16T05:33:22;15.45;;;9.80;;
20611;SDS011;10465;42.686;23.364;2022-10-16T05:35:49;16.98;;;10.38;;
20611;SDS011;10465;42.686;23.364;2022-10-16T05:38:15;12.20;;;9.25;;
20611;SDS011;10465;42.686;23.364;2022-10-16T05:40:42;12.18;;;8.40;;
20611;SDS011;10465;42.686;23.364;2022-10-16T06:21:56;22.90;;;14.20;;
20611;SDS011;10465;42.686;23.364;2022-10-16T06:24:23;16.33;;;11.27;;
20611;SDS011;10465;42.686;23.364;2022-10-16T06:26:48;21.52;;;14.48;;
20611;SDS011;10465;42.686;23.364;2022-10-16T06:29:13;24.13;;;15.52;;
20611;SDS011;10465;42.686;23.364;2022-10-16T06:31:39;27.50;;;15.23;;
20611;SDS011;10465;42.686;23.364;2022-10-16T06:34:04;20.33;;;13.90;;
20611;SDS011;10465;42.686;23.364;2022-10-16T06:36:34;26.02;;;15.70;;
20611;SDS011;10465;42.686;23.364;2022-10-16T06:39:26;22.02;;;15.57;;
20611;SDS011;10465;42.686;23.364;2022-10-16T06:41:51;29.45;;;17.23;;
20611;SDS011;10465;42.686;23.364;2022-10-16T06:44:16;26.40;;;17.35;;
20611;SDS011;10465;42.686;23.364;2022-10-16T06:46:42;28.42;;;17.92;;
20611;SDS011;10465;42.686;23.364;2022-10-16T06:49:07;28.00;;;17.73;;
20611;SDS011;10465;42.686;23.364;2022-10-16T06:51:33;22.45;;;16.65;;
20611;SDS011;10465;42.686;23.364;2022-10-16T06:54:01;22.58;;;15.18;;
20611;SDS011;10465;42.686;23.364;2022-10-16T06:56:27;19.63;;;14.50;;
20611;SDS011;10465;42.686;23.364;2022-10-16T06:58:55;21.88;;;14.13;;
20611;SDS011;10465;42.686;23.364;2022-10-16T07:01:21;20.73;;;13.23;;
20611;SDS011;10465;42.686;23.364;2022-10-16T07:03:48;15.98;;;12.32;;
20611;SDS011;10465;42.686;23.364;2022-10-16T07:06:15;17.13;;;11.88;;
20611;SDS011;10465;42.686;23.364;2022-10-16T07:08:43;15.80;;;11.23;;
20611;SDS011;10465;42.686;23.364;2022-10-16T07:11:10;12.05;;;10.40;;
20611;SDS011;10465;42.686;23.364;2022-10-16T07:13:38;13.23;;;10.25;;
20611;SDS011;10465;42.686;23.364;2022-10-16T07:16:06;13.88;;;9.38;;
20611;SDS011;10465;42.686;23.364;2022-10-16T07:18:39;12.77;;;9.50;;
20611;SDS011;10465;42.686;23.364;2022-10-16T07:21:15;13.43;;;8.48;;
20611;SDS011;10465;42.686;23.364;2022-10-16T07:23:42;12.18;;;9.65;;
20611;SDS011;10465;42.686;23.364;2022-10-16T07:26:08;12.48;;;9.10;;
20611;SDS011;10465;42.686;23.364;2022-10-16T07:28:34;12.57;;;9.18;;
20611;SDS011;10465;42.686;23.364;2022-10-16T07:31:04;15.43;;;10.55;;
20611;SDS011;10465;42.686;23.364;2022-10-16T07:33:31;13.73;;;9.68;;
20611;SDS011;10465;42.686;23.364;2022-10-16T07:35:59;14.65;;;10.88;;
20611;SDS011;10465;42.686;23.364;2022-10-16T07:38:24;12.25;;;8.93;;
20611;SDS011;10465;42.686;23.364;2022-10-16T07:40:56;13.82;;;10.27;;
20611;SDS011;10465;42.686;23.364;2022-10-16T07:43:23;17.17;;;8.68;;
20611;SDS011;10465;42.686;23.364;2022-10-16T07:45:49;10.90;;;8.07;;
20611;SDS011;10465;42.686;23.364;2022-10-16T07:48:16;14.23;;;9.45;;
20611;SDS011;10465;42.686;23.364;2022-10-16T07:50:42;12.93;;;9.02;;
20611;SDS011;10465;42.686;23.364;2022-10-16T07:53:09;11.98;;;8.48;;
20611;SDS011;10465;42.686;23.364;2022-10-16T07:55:35;11.15;;;8.32;;
20611;SDS011;10465;42.686;23.364;2022-10-16T07:58:00;12.23;;;8.27;;
20611;SDS011;10465;42.686;23.364;2022-10-16T08:00:26;11.00;;;7.95;;
20611;SDS011;10465;42.686;23.364;2022-10-16T08:02:51;11.95;;;9.18;;
20611;SDS011;10465;42.686;23.364;2022-10-16T08:05:16;14.15;;;9.40;;
20611;SDS011;10465;42.686;23.364;2022-10-16T08:07:42;9.88;;;8.63;;
20611;SDS011;10465;42.686;23.364;2022-10-16T08:10:14;13.77;;;7.85;;
20611;SDS011;10465;42.686;23.364;2022-10-16T08:12:42;9.82;;;8.15;;
20611;SDS011;10465;42.686;23.364;2022-10-16T08:15:07;13.23;;;8.13;;
20611;SDS011;10465;42.686;23.364;2022-10-16T08:17:33;14.35;;;9.93;;
20611;SDS011;10465;42.686;23.364;2022-10-16T08:19:59;13.55;;;11.25;;
20611;SDS011;10465;42.686;23.364;2022-10-16T08:22:24;17.50;;;13.10;;
20611;SDS011;10465;42.686;23.364;2022-10-16T08:24:49;13.38;;;10.45;;
20611;SDS011;10465;42.686;23.364;2022-10-16T08:27:15;10.55;;;8.50;;
20611;SDS011;10465;42.686;23.364;2022-10-16T08:29:40;12.10;;;7.80;;
20611;SDS011;10465;42.686;23.364;2022-10-16T08:32:06;8.57;;;6.72;;
20611;SDS011;10465;42.686;23.364;2022-10-16T08:34:31;9.68;;;7.35;;
20611;SDS011;10465;42.686;23.364;2022-10-16T08:36:57;13.77;;;7.25;;
20611;SDS011;10465;42.686;23.364;2022-10-16T08:39:22;9.48;;;6.97;;
20611;SDS011;10465;42.686;23.364;2022-10-16T08:41:57;12.90;;;5.88;;
20611;SDS011;10465;42.686;23.364;2022-10-16T08:47:23;9.93;;;7.28;;
20611;SDS011;10465;42.686;23.364;2022-10-16T08:49:55;9.38;;;6.18;;
20611;SDS011;10465;42.686;23.364;2022-10-16T08:52:23;7.95;;;4.95;;
20611;SDS011;10465;42.686;23.364;2022-10-16T08:54:53;9.20;;;5.13;;
20611;SDS011;10465;42.686;23.364;2022-10-16T08:57:21;11.00;;;5.50;;
20611;SDS011;10465;42.686;23.364;2022-10-16T08:59:47;6.60;;;5.07;;
20611;SDS011;10465;42.686;23.364;2022-10-16T09:02:23;8.60;;;6.65;;
20611;SDS011;10465;42.686;23.364;2022-10-16T09:08:01;5.85;;;4.20;;
20611;SDS011;10465;42.686;23.364;2022-10-16T09:10:36;6.55;;;4.13;;
20611;SDS011;10465;42.686;23.364;2022-10-16T09:15:42;9.68;;;4.50;;
20611;SDS011;10465;42.686;23.364;2022-10-16T09:18:33;5.70;;;4.13;;
20611;SDS011;10465;42.686;23.364;2022-10-16T09:21:18;5.65;;;4.13;;
20611;SDS011;10465;42.686;23.364;2022-10-16T09:23:47;12.80;;;10.00;;
20611;SDS011;10465;42.686;23.364;2022-10-16T09:26:13;8.45;;;5.55;;
20611;SDS011;10465;42.686;23.364;2022-10-16T09:28:40;6.97;;;4.38;;
20611;SDS011;10465;42.686;23.364;2022-10-16T09:31:16;7.25;;;4.50;;
20611;SDS011;10465;42.686;23.364;2022-10-16T09:33:44;7.88;;;4.00;;
20611;SDS011;10465;42.686;23.364;2022-10-16T09:36:13;5.60;;;3.85;;
20611;SDS011;10465;42.686;23.364;2022-10-16T09:38:39;7.63;;;3.80;;
20611;SDS011;10465;42.686;23.364;2022-10-16T09:41:38;4.88;;;3.90;;
20611;SDS011;10465;42.686;23.364;2022-10-16T09:44:00;4.38;;;3.95;;
20611;SDS011;10465;42.686;23.364;2022-10-16T09:46:31;7.85;;;4.72;;
20611;SDS011;10465;42.686;23.364;2022-10-16T09:48:59;5.45;;;3.70;;
20611;SDS011;10465;42.686;23.364;2022-10-16T09:53:59;8.10;;;3.83;;
20611;SDS011;10465;42.686;23.364;2022-10-16T09:56:45;4.72;;;3.60;;
20611;SDS011;10465;42.686;23.364;2022-10-16T09:59:20;7.18;;;5.05;;
20611;SDS011;10465;42.686;23.364;2022-10-16T10:01:52;6.85;;;5.05;;
20611;SDS011;10465;42.686;23.364;2022-10-16T10:04:19;5.07;;;4.50;;
20611;SDS011;10465;42.686;23.364;2022-10-16T10:06:46;6.38;;;4.65;;
20611;SDS011;10465;42.686;23.364;2022-10-16T10:11:59;4.30;;;3.90;;
20611;SDS011;10465;42.686;23.364;2022-10-16T10:17:02;4.78;;;3.83;;
20611;SDS011;10465;42.686;23.364;2022-10-16T10:19:37;4.10;;;3.60;;
20611;SDS011;10465;42.686;23.364;2022-10-16T10:22:17;6.07;;;3.67;;
20611;SDS011;10465;42.686;23.364;2022-10-16T10:24:55;4.30;;;3.75;;
20611;SDS011;10465;42.686;23.364;2022-10-16T10:27:20;7.65;;;4.28;;
20611;SDS011;10465;42.686;23.364;2022-10-16T10:35:49;4.82;;;3.92;;
20611;SDS011;10465;42.686;23.364;2022-10-16T10:38:57;6.85;;;3.97;;
20611;SDS011;10465;42.686;23.364;2022-10-16T10:44:39;9.88;;;4.10;;
20611;SDS011;10465;42.686;23.364;2022-10-16T10:47:28;5.45;;;3.50;;
20611;SDS011;10465;42.686;23.364;2022-10-16T10:55:39;5.20;;;3.60;;
20611;SDS011;10465;42.686;23.364;2022-10-16T11:06:07;4.30;;;3.63;;
20611;SDS011;10465;42.686;23.364;2022-10-16T11:11:15;5.00;;;3.58;;
20611;SDS011;10465;42.686;23.364;2022-10-16T11:16:17;5.93;;;3.33;;
20611;SDS011;10465;42.686;23.364;2022-10-16T11:18:52;5.80;;;3.65;;
20611;SDS011;10465;42.686;23.364;2022-10-16T11:21:46;4.85;;;3.80;;
20611;SDS011;10465;42.686;23.364;2022-10-16T11:24:20;5.57;;;3.45;;
20611;SDS011;10465;42.686;23.364;2022-10-16T11:26:54;4.65;;;3.45;;
20611;SDS011;10465;42.686;23.364;2022-10-16T11:29:25;4.85;;;3.40;;
20611;SDS011;10465;42.686;23.364;2022-10-16T11:31:55;5.07;;;3.05;;
20611;SDS011;10465;42.686;23.364;2022-10-16T11:34:29;5.47;;;3.47;;
20611;SDS011;10465;42.686;23.364;2022-10-16T11:37:01;4.35;;;2.90;;
20611;SDS011;10465;42.686;23.364;2022-10-16T11:39:37;3.47;;;3.03;;
20611;SDS011;10465;42.686;23.364;2022-10-16T11:50:04;4.95;;;3.30;;
20611;SDS011;10465;42.686;23.364;2022-10-16T11:52:42;3.90;;;3.38;;
20611;SDS011;10465;42.686;23.364;2022-10-16T11:55:17;4.20;;;3.30;;
20611;SDS011;10465;42.686;23.364;2022-10-16T11:58:01;5.15;;;3.60;;
20611;SDS011;10465;42.686;23.364;2022-10-16T12:00:47;3.45;;;2.97;;
20611;SDS011;10465;42.686;23.364;2022-10-16T12:08:16;4.97;;;3.10;;
20611;SDS011;10465;42.686;23.364;2022-10-16T12:10:43;3.20;;;2.90;;
20611;SDS011;10465;42.686;23.364;2022-10-16T12:18:37;3.67;;;3.30;;
20611;SDS011;10465;42.686;23.364;2022-10-16T12:21:03;4.85;;;3.17;;
20611;SDS011;10465;42.686;23.364;2022-10-16T12:23:53;4.30;;;2.83;;
20611;SDS011;10465;42.686;23.364;2022-10-16T12:26:25;5.93;;;2.90;;
20611;SDS011;10465;42.686;23.364;2022-10-16T12:28:57;5.40;;;2.95;;
20611;SDS011;10465;42.686;23.364;2022-10-16T12:31:42;3.45;;;3.05;;
20611;SDS011;10465;42.686;23.364;2022-10-16T12:34:29;3.42;;;2.88;;
20611;SDS011;10465;42.686;23.364;2022-10-16T12:37:06;4.60;;;3.58;;
20611;SDS011;10465;42.686;23.364;2022-10-16T12:39:35;6.82;;;3.60;;
20611;SDS011;10465;42.686;23.364;2022-10-16T12:42:03;5.15;;;3.60;;
20611;SDS011;10465;42.686;23.364;2022-10-16T12:44:36;5.07;;;3.70;;
20611;SDS011;10465;42.686;23.364;2022-10-16T12:47:02;4.35;;;3.53;;
20611;SDS011;10465;42.686;23.364;2022-10-16T12:51:53;7.65;;;3.58;;
20611;SDS011;10465;42.686;23.364;2022-10-16T12:54:29;6.18;;;3.00;;
20611;SDS011;10465;42.686;23.364;2022-10-16T13:05:13;4.53;;;2.80;;
20611;SDS011;10465;42.686;23.364;2022-10-16T13:27:31;4.35;;;3.08;;
20611;SDS011;10465;42.686;23.364;2022-10-16T13:30:11;7.32;;;3.35;;
20611;SDS011;10465;42.686;23.364;2022-10-16T13:32:40;10.85;;;3.78;;
20611;SDS011;10465;42.686;23.364;2022-10-16T13:35:27;5.07;;;3.20;;
20611;SDS011;10465;42.686;23.364;2022-10-16T13:38:14;7.30;;;3.80;;
20611;SDS011;10465;42.686;23.364;2022-10-16T13:40:52;3.78;;;3.20;;
20611;SDS011;10465;42.686;23.364;2022-10-16T13:43:31;4.85;;;3.30;;
20611;SDS011;10465;42.686;23.364;2022-10-16T13:46:06;3.92;;;3.30;;
20611;SDS011;10465;42.686;23.364;2022-10-16T13:48:37;3.03;;;2.75;;
20611;SDS011;10465;42.686;23.364;2022-10-16T13:51:24;3.95;;;2.97;;
20611;SDS011;10465;42.686;23.364;2022-10-16T13:53:48;3.85;;;3.15;;
20611;SDS011;10465;42.686;23.364;2022-10-16T13:56:15;5.63;;;2.92;;
20611;SDS011;10465;42.686;23.364;2022-10-16T13:58:43;5.28;;;3.45;;
20611;SDS011;10465;42.686;23.364;2022-10-16T14:03:44;4.13;;;3.05;;
20611;SDS011;10465;42.686;23.364;2022-10-16T14:06:12;4.90;;;3.17;;
20611;SDS011;10465;42.686;23.364;2022-10-16T14:08:53;5.25;;;3.35;;
20611;SDS011;10465;42.686;23.364;2022-10-16T14:11:24;5.45;;;3.53;;
20611;SDS011;10465;42.686;23.364;2022-10-16T14:13:50;5.38;;;2.95;;
20611;SDS011;10465;42.686;23.364;2022-10-16T14:16:17;3.30;;;2.65;;
20611;SDS011;10465;42.686;23.364;2022-10-16T14:18:55;5.15;;;2.97;;
20611;SDS011;10465;42.686;23.364;2022-10-16T14:21:23;4.03;;;2.72;;
20611;SDS011;10465;42.686;23.364;2022-10-16T14:23:49;2.83;;;2.50;;
20611;SDS011;10465;42.686;23.364;2022-10-16T14:26:16;5.72;;;2.75;;
20611;SDS011;10465;42.686;23.364;2022-10-16T14:28:44;4.18;;;3.22;;
20611;SDS011;10465;42.686;23.364;2022-10-16T14:31:24;6.68;;;3.35;;
20611;SDS011;10465;42.686;23.364;2022-10-16T14:33:53;4.38;;;3.72;;
20611;SDS011;10465;42.686;23.364;2022-10-16T14:36:18;4.97;;;3.30;;
20611;SDS011;10465;42.686;23.364;2022-10-16T14:41:27;8.05;;;5.88;;
20611;SDS011;10465;42.686;23.364;2022-10-16T14:44:03;10.07;;;6.53;;
20611;SDS011;10465;42.686;23.364;2022-10-16T14:46:31;9.38;;;6.88;;
20611;SDS011;10465;42.686;23.364;2022-10-16T14:49:02;8.40;;;5.00;;
20611;SDS011;10465;42.686;23.364;2022-10-16T14:51:38;9.52;;;4.10;;
20611;SDS011;10465;42.686;23.364;2022-10-16T14:54:09;8.95;;;4.53;;
20611;SDS011;10465;42.686;23.364;2022-10-16T14:59:17;6.43;;;3.60;;
20611;SDS011;10465;42.686;23.364;2022-10-16T15:01:48;8.25;;;3.80;;
20611;SDS011;10465;42.686;23.364;2022-10-16T15:04:14;4.47;;;3.60;;
20611;SDS011;10465;42.686;23.364;2022-10-16T15:06:40;8.77;;;4.25;;
20611;SDS011;10465;42.686;23.364;2022-10-16T15:09:06;9.93;;;4.70;;
20611;SDS011;10465;42.686;23.364;2022-10-16T15:11:32;8.25;;;3.83;;
20611;SDS011;10465;42.686;23.364;2022-10-16T15:13:58;6.70;;;3.80;;
20611;SDS011;10465;42.686;23.364;2022-10-16T15:16:23;3.78;;;3.22;;
20611;SDS011;10465;42.686;23.364;2022-10-16T15:18:49;4.32;;;2.83;;
20611;SDS011;10465;42.686;23.364;2022-10-16T15:21:23;4.75;;;3.22;;
20611;SDS011;10465;42.686;23.364;2022-10-16T15:23:54;4.70;;;3.60;;
20611;SDS011;10465;42.686;23.364;2022-10-16T15:26:22;6.57;;;4.00;;
20611;SDS011;10465;42.686;23.364;2022-10-16T15:28:56;11.00;;;4.78;;
20611;SDS011;10465;42.686;23.364;2022-10-16T15:31:22;8.40;;;4.97;;
20611;SDS011;10465;42.686;23.364;2022-10-16T15:33:52;8.63;;;4.53;;
20611;SDS011;10465;42.686;23.364;2022-10-16T15:36:24;7.80;;;5.35;;
20611;SDS011;10465;42.686;23.364;2022-10-16T15:38:51;8.73;;;5.32;;
20611;SDS011;10465;42.686;23.364;2022-10-16T15:41:16;9.20;;;5.65;;
20611;SDS011;10465;42.686;23.364;2022-10-16T15:43:42;7.30;;;4.75;;
20611;SDS011;10465;42.686;23.364;2022-10-16T15:46:09;6.38;;;4.30;;
20611;SDS011;10465;42.686;23.364;2022-10-16T15:48:39;8.25;;;4.47;;
20611;SDS011;10465;42.686;23.364;2022-10-16T15:51:05;6.68;;;4.25;;
20611;SDS011;10465;42.686;23.364;2022-10-16T15:53:32;7.18;;;4.32;;
20611;SDS011;10465;42.686;23.364;2022-10-16T15:56:01;7.70;;;4.40;;
20611;SDS011;10465;42.686;23.364;2022-10-16T15:58:30;6.10;;;4.00;;
20611;SDS011;10465;42.686;23.364;2022-10-16T16:00:55;6.00;;;4.45;;
20611;SDS011;10465;42.686;23.364;2022-10-16T16:03:22;6.85;;;4.80;;
20611;SDS011;10465;42.686;23.364;2022-10-16T16:05:47;6.47;;;3.75;;
20611;SDS011;10465;42.686;23.364;2022-10-16T16:08:13;19.80;;;4.93;;
20611;SDS011;10465;42.686;23.364;2022-10-16T16:10:38;7.50;;;4.18;;
20611;SDS011;10465;42.686;23.364;2022-10-16T16:13:04;10.98;;;4.72;;
20611;SDS011;10465;42.686;23.364;2022-10-16T16:15:29;11.27;;;5.38;;
20611;SDS011;10465;42.686;23.364;2022-10-16T16:17:55;8.27;;;5.45;;
20611;SDS011;10465;42.686;23.364;2022-10-16T16:20:20;10.80;;;5.60;;
20611;SDS011;10465;42.686;23.364;2022-10-16T16:22:47;7.63;;;5.50;;
20611;SDS011;10465;42.686;23.364;2022-10-16T16:25:12;10.05;;;5.72;;
20611;SDS011;10465;42.686;23.364;2022-10-16T16:27:38;7.30;;;6.15;;
20611;SDS011;10465;42.686;23.364;2022-10-16T16:30:04;12.32;;;7.55;;
20611;SDS011;10465;42.686;23.364;2022-10-16T16:32:32;12.70;;;8.07;;
20611;SDS011;10465;42.686;23.364;2022-10-16T16:34:58;15.43;;;10.52;;
20611;SDS011;10465;42.686;23.364;2022-10-16T16:37:23;14.43;;;9.52;;
20611;SDS011;10465;42.686;23.364;2022-10-16T16:39:49;11.65;;;8.05;;
20611;SDS011;10465;42.686;23.364;2022-10-16T16:42:14;13.73;;;8.65;;
20611;SDS011;10465;42.686;23.364;2022-10-16T16:44:40;10.98;;;6.85;;
20611;SDS011;10465;42.686;23.364;2022-10-16T16:47:05;10.68;;;6.82;;
20611;SDS011;10465;42.686;23.364;2022-10-16T16:49:31;13.25;;;8.20;;
20611;SDS011;10465;42.686;23.364;2022-10-16T16:51:56;10.38;;;6.82;;
20611;SDS011;10465;42.686;23.364;2022-10-16T16:54:22;8.82;;;6.47;;
20611;SDS011;10465;42.686;23.364;2022-10-16T16:56:47;15.43;;;7.70;;
20611;SDS011;10465;42.686;23.364;2022-10-16T16:59:14;14.55;;;7.32;;
20611;SDS011;10465;42.686;23.364;2022-10-16T17:01:44;10.65;;;6.38;;
20611;SDS011;10465;42.686;23.364;2022-10-16T17:04:11;10.90;;;6.93;;
20611;SDS011;10465;42.686;23.364;2022-10-16T17:06:38;8.85;;;5.50;;
20611;SDS011;10465;42.686;23.364;2022-10-16T17:09:04;9.77;;;5.47;;
20611;SDS011;10465;42.686;23.364;2022-10-16T17:11:31;10.15;;;8.32;;
20611;SDS011;10465;42.686;23.364;2022-10-16T17:13:57;10.35;;;7.95;;
20611;SDS011;10465;42.686;23.364;2022-10-16T17:16:24;10.80;;;7.30;;